• Join FlightAware (Why Join?)
  • Login
  • US Flag 
12:39PM EDT


 

Airport Tracker/Info


-or-


 

Live Flight TrackerFlight Track Log ✈ DAL908 ✈ 15-Mar-2012 ✈ KFLL - KCVG

Flight Track Log - Related Links

Times and Time Zones

All times are in EDT time to prevent confusion due to time zone crossing. See the DAL908 flight status page for this flight to view local times or setup timezone preferences in your user account.

Time Position Orientation Groundspeed Altitude Reporting Facility
EDT Latitude Longitude Course Direction KTS MPH feet Rate Location/Type
08:18AM 26.0747 -80.1414 82° East 167 192 900  Level Miami Center
08:19AM 26.0850 -80.0606 North 239 275 3,700 1,800 Climbing Miami Center
08:20AM 26.1456 -80.0553 324° Northwest 280 322 5,000 780 Climbing Miami Center
08:21AM 26.2053 -80.1033 325° Northwest 288 331 5,200 840 Climbing Miami Center
08:22AM 26.2606 -80.1464 321° Northwest 290 334 6,500 3,060 Climbing Miami Center
08:23AM 26.3178 -80.1989 323° Northwest 311 358 10,700 2,700 Climbing Miami Center
08:24AM 26.3833 -80.2542 322° Northwest 320 368 12,000 2,220 Climbing Miami Center
08:25AM 26.4775 -80.3358 324° Northwest 372 428 15,200 2,880 Climbing Miami Center
08:26AM 26.5575 -80.4008 337° Northwest 389 448 17,800 2,640 Climbing Miami Center
08:27AM 26.6689 -80.4531 345° North 395 455 20,500 2,160 Climbing Miami Center
08:28AM 26.7706 -80.4839 347° North 409 471 22,200 1,800 Climbing Miami Center
08:29AM 26.8889 -80.5156 344° North 428 493 24,100 2,100 Climbing Miami Center
08:30AM 27.0089 -80.5544 345° North 440 506 26,400 2,340 Climbing Miami Center
08:31AM 27.1333 -80.5911 345° North 428 493 28,800 2,100 Climbing Miami Center
08:32AM 27.2453 -80.6250 341° North 421 484 30,700 1,080 Climbing Miami Center
08:33AM 27.3525 -80.6658 337° Northwest 411 473 31,000 720 Climbing Miami Center
08:34AM 27.4433 -80.7086 337° Northwest 401 461 32,200 840 Climbing Miami Center
08:35AM 27.5486 -80.7589 341° North 406 467 32,700 1,140 Climbing Miami Center
08:36AM 27.6600 -80.8028 340° North 413 475 34,500 1,260 Climbing Miami Center
08:37AM 27.7672 -80.8461 340° North 413 475 35,300 840 Climbing Miami Center
08:38AM 27.8767 -80.8922 339° North 408 470 36,200 840 Climbing Miami Center
08:39AM 27.9778 -80.9358 340° North 408 470 37,000 360 Climbing Miami Center
08:40AM 28.0831 -80.9797 340° North 408 470 37,000  Level Miami Center
08:41AM 28.1881 -81.0236 339° North 408 470 37,000  Level Miami Center
08:42AM 28.2972 -81.0700 339° North 408 470 37,000  Level Miami Center
08:43AM 28.4003 -81.1139 340° North 408 470 37,000  Level Miami Center
08:44AM 28.5033 -81.1558 339° North 408 470 37,000  Level Miami Center
08:45AM 28.6106 -81.2025 340° North 408 470 37,000  Level Miami Center
08:46AM 28.7719 -81.2678 339° North 412 474 37,000  Level Jacksonville Center
08:47AM 28.8789 -81.3158 336° Northwest 412 474 37,000  Level Jacksonville Center
08:48AM 28.9797 -81.3664 340° North 412 474 37,000  Level Jacksonville Center
08:49AM 29.0847 -81.4100 340° North 407 468 37,000  Level Jacksonville Center
08:50AM 29.1894 -81.4536 340° North 402 463 37,000  Level Jacksonville Center
08:51AM 29.2964 -81.4972 339° North 402 463 37,000  Level Jacksonville Center
08:52AM 29.4033 -81.5433 340° North 402 463 37,000  Level Jacksonville Center
08:53AM 29.5103 -81.5872 339° North 402 463 37,000  Level Jacksonville Center
08:54AM 29.6153 -81.6336 339° North 407 468 37,000  Level Jacksonville Center
08:55AM 29.7200 -81.6800 340° North 407 468 37,000  Level Jacksonville Center
08:56AM 29.8247 -81.7242 339° North 407 468 37,000  Level Jacksonville Center
08:57AM 29.9297 -81.7708 340° North 401 461 37,000  Level Jacksonville Center
08:58AM 30.0239 -81.8106 340° North 401 461 37,000  Level Jacksonville Center
08:59AM 30.1286 -81.8550 342° North 401 461 37,000  Level Jacksonville Center
09:00AM 30.2356 -81.8947 343° North 395 455 37,000  Level Jacksonville Center
09:01AM 30.3444 -81.9322 343° North 395 455 37,000  Level Jacksonville Center
09:02AM 30.4511 -81.9697 343° North 395 455 37,000  Level Jacksonville Center
09:03AM 30.5683 -82.0119 344° North 401 461 37,000  Level Jacksonville Center
09:04AM 30.6750 -82.0472 344° North 401 461 37,000  Level Jacksonville Center
09:05AM 30.7817 -82.0825 344° North 401 461 37,000  Level Jacksonville Center
09:06AM 30.8883 -82.1178 344° North 401 461 37,000  Level Jacksonville Center
09:07AM 30.9972 -82.1533 344° North 401 461 37,000  Level Jacksonville Center
09:08AM 31.1061 -82.1889 344° North 401 461 37,000  Level Jacksonville Center
09:09AM 31.2106 -82.2244 342° North 401 461 37,000  Level Jacksonville Center
09:10AM 31.3172 -82.2653 345° North 401 461 37,000  Level Jacksonville Center
09:11AM 31.4239 -82.2986 344° North 395 455 37,000  Level Jacksonville Center
09:13AM 31.6581 -82.3775 346° North 404 465 37,000  Level Atlanta Center
09:14AM 31.7567 -82.4072 344° North 409 471 37,000  Level Atlanta Center
09:15AM 31.8636 -82.4444 343° North 404 465 37,000  Level Atlanta Center
09:16AM 31.9664 -82.4819 345° North 387 445 37,000  Level Atlanta Center
09:17AM 32.0775 -82.5167 343° North 387 445 37,000  Level Atlanta Center
09:18AM 32.1864 -82.5567 342° North 387 445 37,000  Level Atlanta Center
09:19AM 32.2892 -82.5967 345° North 392 451 37,000  Level Atlanta Center
09:20AM 32.4003 -82.6317 343° North 392 451 37,000  Level Atlanta Center
09:21AM 32.5072 -82.6694 345° North 397 457 37,000  Level Atlanta Center
09:22AM 32.6119 -82.7022 342° North 397 457 37,000  Level Atlanta Center
09:23AM 32.7292 -82.7475 344° North 402 463 37,000 -180 Level Atlanta Center
09:24AM 32.8381 -82.7853 344° North 402 463 36,700 -540 Descending Atlanta Center
09:25AM 32.9450 -82.8208 344° North 402 463 36,000 -360 Descending Atlanta Center
09:26AM 33.0517 -82.8567 342° North 402 463 36,000  Level Atlanta Center
09:27AM 33.1586 -82.8975 344° North 402 463 36,000  Level Atlanta Center
09:28AM 33.2675 -82.9358 345° North 402 463 36,000  Level Atlanta Center
09:29AM 33.3783 -82.9717 344° North 401 461 36,000  Level Atlanta Center
09:30AM 33.4872 -83.0100 344° North 401 461 36,000  Level Atlanta Center
09:31AM 33.5961 -83.0486 343° North 401 461 36,000  Level Atlanta Center
09:32AM 33.7069 -83.0900 343° North 401 461 36,000  Level Atlanta Center
09:33AM 33.8139 -83.1286 344° North 400 460 36,000  Level Atlanta Center
09:34AM 33.9225 -83.1650 343° North 400 460 36,000  Level Atlanta Center
09:35AM 34.0211 -83.2017 344° North 406 467 36,000  Level Atlanta Center
09:36AM 34.1297 -83.2383 344° North 400 460 36,000  Level Atlanta Center
09:37AM 34.2406 -83.2775 342° North 405 466 36,000  Level Atlanta Center
09:38AM 34.3472 -83.3192 339° North 400 460 36,000  Level Atlanta Center
09:39AM 34.4519 -83.3686 330° Northwest 400 460 36,000  Level Atlanta Center
09:40AM 34.5483 -83.4361 330° Northwest 394 453 36,000  Level Atlanta Center
09:41AM 34.6467 -83.5061 328° Northwest 410 472 36,000  Level Atlanta Center
09:42AM 34.7431 -83.5786 328° Northwest 410 472 36,000  Level Atlanta Center
09:43AM 34.8433 -83.6542 328° Northwest 410 472 36,000  Level Atlanta Center
09:44AM 34.9458 -83.7322 330° Northwest 410 472 36,000  Level Atlanta Center
09:45AM 35.0442 -83.8028 328° Northwest 410 472 36,000  Level Atlanta Center
09:46AM 35.1403 -83.8761 335° Northwest 410 472 36,000  Level Atlanta Center
09:47AM 35.2447 -83.9344 North 410 472 36,000  Level Atlanta Center
09:48AM 35.3636 -83.9242 North 396 456 36,000  Level Atlanta Center
09:49AM 35.4783 -83.9189 North 401 461 36,000 -480 Level Atlanta Center
09:50AM 35.5931 -83.9111 North 406 467 35,100 -540 Descending Atlanta Center
09:51AM 35.6994 -83.9083 North 411 473 35,000 -60 Descending Atlanta Center
09:52AM 35.8161 -83.9006 North 411 473 35,000  Level Atlanta Center
09:53AM 35.9331 -83.8900 North 416 479 35,000 -240 Level Atlanta Center
09:54AM 36.0478 -83.8719 North 416 479 34,600 -540 Descending Atlanta Center
09:55AM 36.1625 -83.8511 North 421 484 34,000 -240 Descending Atlanta Center
09:57AM 36.4008 -83.8125 North 435 501 34,000  Level Indianapolis Center
09:58AM 36.4950 -83.7947 North 429 494 34,000  Level Indianapolis Center
09:59AM 36.6200 -83.7744 North 417 480 34,000  Level Indianapolis Center
10:00AM 36.7347 -83.7539 North 417 480 34,000  Level Indianapolis Center
10:01AM 36.8539 -83.7336 North 417 480 34,000  Level Indianapolis Center
10:02AM 36.9789 -83.7131 North 417 480 34,000  Level Indianapolis Center
10:03AM 37.0978 -83.6925 North 423 487 34,000  Level Indianapolis Center
10:04AM 37.2147 -83.6717 North 423 487 34,000 -1,200 Level Indianapolis Center
10:05AM 37.3336 -83.6511 North 423 487 31,600 -3,000 Descending Indianapolis Center
10:06AM 37.4506 -83.6275 North 423 487 28,100 -3,300 Descending Indianapolis Center
10:07AM 37.5714 -83.6042 354° North 430 495 25,000 -2,220 Descending Indianapolis Center
10:08AM 37.6842 -83.6200 330° Northwest 411 473 23,700 -1,200 Descending Indianapolis Center
10:09AM 37.7717 -83.6831 348° North 375 432 22,700 -660 Descending Indianapolis Center
10:10AM 37.8592 -83.7069 55° Northeast 340 391 22,400 -540 Descending Indianapolis Center
10:11AM 37.9136 -83.6097 122° Southeast 298 343 21,700 -780 Descending Indianapolis Center
10:12AM 37.8656 -83.5122 152° Southeast 357 411 20,900 -900 Descending Indianapolis Center
10:13AM 37.7864 -83.4597 150° Southeast 347 399 20,000 -480 Descending Indianapolis Center
10:14AM 37.7111 -83.4047 193° South 322 371 20,000  Level Indianapolis Center
10:15AM 37.6297 -83.4286 252° West 290 334 20,000  Level Indianapolis Center
10:16AM 37.6050 -83.5231 309° West 274 315 20,000  Level Indianapolis Center
10:17AM 37.6528 -83.5989 331° Northwest 282 325 20,000  Level Indianapolis Center
10:18AM 37.7236 -83.6489 330° Northwest 293 337 20,000  Level Indianapolis Center
10:19AM 37.7925 -83.6989 15° North 293 337 20,000  Level Indianapolis Center
10:20AM 37.8675 -83.6728 94° East 269 310 20,000  Level Indianapolis Center
10:21AM 37.8614 -83.5728 146° Southeast 308 354 20,000  Level Indianapolis Center
10:22AM 37.7989 -83.5203 150° Southeast 302 348 20,000  Level Indianapolis Center
10:23AM 37.7194 -83.4625 177° South 322 371 20,000  Level Indianapolis Center
10:24AM 37.6403 -83.4575 253° West 308 354 20,000  Level Indianapolis Center
10:25AM 37.6175 -83.5492 319° Northwest 282 325 20,000  Level Indianapolis Center
10:26AM 37.6778 -83.6147 330° Northwest 267 307 20,000  Level Indianapolis Center
10:27AM 37.7508 -83.6672 336° Northwest 295 339 20,000  Level Indianapolis Center
10:28AM 37.8217 -83.7069 43° Northeast 295 339 20,000  Level Indianapolis Center
10:29AM 37.8803 -83.6386 122° Southeast 289 333 20,000  Level Indianapolis Center
10:30AM 37.8364 -83.5492 149° Southeast 325 374 20,000  Level Indianapolis Center
10:31AM 37.7592 -83.4914 154° Southeast 336 387 20,000  Level Indianapolis Center
10:32AM 37.6819 -83.4442 215° Southwest 321 369 20,000  Level Indianapolis Center
10:33AM 37.6194 -83.4994 290° West 268 308 20,000  Level Indianapolis Center
10:34AM 37.6444 -83.5858 329° Northwest 263 303 20,000  Level Indianapolis Center
10:35AM 37.7133 -83.6383 331° Northwest 296 341 20,000  Level Indianapolis Center
10:36AM 37.7842 -83.6883 North 302 348 20,000  Level Indianapolis Center
10:37AM 37.8572 -83.6858 81° East 266 306 20,000  Level Indianapolis Center
10:38AM 37.8697 -83.5833 155° Southeast 284 327 20,000  Level Indianapolis Center
10:39AM 37.7925 -83.5386 165° South 282 325 20,000 -600 Level Indianapolis Center
10:40AM 37.7028 -83.5072 219° Southwest 354 407 18,900 -1,320 Descending Indianapolis Center
10:41AM 37.6444 -83.5675 293° West 260 299 17,400 -1,680 Descending Indianapolis Center
10:42AM 37.6778 -83.6672 294° West 287 330 15,600 -1,800 Descending Indianapolis Center
10:43AM 37.7089 -83.7567 297° West 296 341 13,800 -1,740 Descending Indianapolis Center
10:44AM 37.7442 -83.8458 295° West 288 331 12,200 -1,680 Descending Indianapolis Center
10:45AM 37.7753 -83.9300 299° West 283 326 10,500 -1,680 Descending Indianapolis Center
10:46AM 37.8106 -84.0119 308° West 274 315 8,900 -1,620 Descending Indianapolis Center
10:47AM 37.8561 -84.0858 308° West 267 307 7,300 -1,440 Descending Indianapolis Center
10:48AM 37.8994 -84.1572 307° West 262 302 6,100 -1,500 Descending Indianapolis Center
10:49AM 37.9408 -84.2258 310° West 262 302 4,400 -1,080 Descending Indianapolis Center
10:50AM 37.9864 -84.2947 308° West 254 292 4,000 -240 Descending Indianapolis Center
10:51AM 38.0278 -84.3611 308° West 254 292 4,000 -420 Level Indianapolis Center
10:52AM 38.0689 -84.4275 287° West 254 292 3,200 -840 Descending Indianapolis Center
10:53AM 38.0850 -84.4936 15° North 222 255 2,400 -840 Descending Indianapolis Center
11:01AM 38.6389 -84.3081 328° Northwest  Level FlightAware Approximate
11:02AM 38.7171 -84.3708 328° Northwest  Level FlightAware Approximate
11:03AM 38.7953 -84.4337 328° Northwest  Level FlightAware Approximate
11:04AM 38.8735 -84.4967 328° Northwest  Level FlightAware Approximate
11:05AM 38.9516 -84.5598 328° Northwest  Level FlightAware Approximate
11:06AM 39.0297 -84.6231 328° Northwest  Level FlightAware Approximate
11:07AM 39.1077 -84.6865 168° South  Level FlightAware Approximate
11:08AM 39.0333 -84.6667 357° North  Level FlightAware Approximate
11:09AM 39.1255 -84.6735 177° South  Level Estimated
11:10AM 39.0333 -84.6667 357° North  Level FlightAware Approximate
11:11AM 39.1255 -84.6735 177° South  Level Estimated
11:12AM 39.0333 -84.6667 357° North  Level FlightAware Approximate
11:13AM 39.1255 -84.6735 357° North  Level Estimated